createdAt,value
2019-01-14T00:01:21.310Z,0.00
2019-01-14T00:03:59.145Z,0.00
2019-01-14T00:06:28.098Z,0.00
2019-01-14T00:08:56.905Z,0.03
2019-01-14T00:11:25.781Z,0.00
2019-01-14T00:14:03.935Z,0.00
2019-01-14T00:16:35.764Z,0.17
2019-01-14T00:19:04.581Z,0.00
2019-01-14T00:21:51.832Z,0.00
2019-01-14T00:24:21.038Z,0.03
2019-01-14T00:26:50.273Z,0.00
2019-01-14T00:29:19.050Z,0.00
2019-01-14T00:31:56.686Z,2.33
2019-01-14T00:34:26.932Z,0.10
2019-01-14T00:36:55.759Z,2.87
2019-01-14T00:39:24.450Z,0.40
2019-01-14T00:42:03.459Z,0.00
2019-01-14T00:44:32.462Z,1.17
2019-01-14T00:47:01.219Z,0.00
2019-01-14T00:49:29.933Z,1.87
2019-01-14T00:52:07.750Z,0.00
2019-01-14T00:54:36.556Z,0.00
2019-01-14T00:57:05.220Z,0.43
2019-01-14T00:59:33.988Z,0.00
2019-01-14T01:02:11.718Z,0.00
2019-01-14T01:04:40.481Z,0.00
2019-01-14T01:07:12.104Z,0.37
2019-01-14T01:09:43.284Z,0.00
2019-01-14T01:12:20.945Z,0.30
2019-01-14T01:14:49.770Z,0.00
2019-01-14T01:17:18.638Z,0.00
2019-01-14T01:19:47.374Z,0.00
2019-01-14T01:22:25.283Z,0.73
2019-01-14T01:24:54.230Z,0.00
2019-01-14T01:27:23.006Z,0.00
2019-01-14T01:29:51.794Z,0.00
2019-01-14T01:32:29.603Z,0.00
2019-01-14T01:34:58.404Z,0.07
2019-01-14T01:37:27.305Z,0.00
2019-01-14T01:39:58.117Z,0.00
2019-01-14T01:42:35.817Z,0.00
2019-01-14T01:45:05.758Z,0.00
2019-01-14T01:47:34.731Z,0.00
2019-01-14T01:50:03.554Z,0.10
2019-01-14T01:52:41.619Z,0.00
2019-01-14T01:55:10.652Z,0.10
2019-01-14T01:57:39.525Z,0.00
2019-01-14T02:00:11.451Z,0.67
2019-01-14T02:05:24.201Z,0.27
2019-01-14T02:07:52.888Z,6.23
2019-01-14T02:10:22.600Z,0.00
2019-01-14T02:13:00.332Z,0.00
2019-01-14T02:15:29.025Z,0.00
2019-01-14T02:17:57.698Z,0.00
2019-01-14T02:20:26.548Z,0.00
2019-01-14T02:23:04.098Z,1.03
2019-01-14T02:25:35.841Z,0.00
2019-01-14T02:28:04.544Z,0.00
2019-01-14T02:30:33.597Z,0.30
2019-01-14T02:33:11.115Z,2.07
2019-01-14T02:35:39.773Z,3.70
2019-01-14T02:38:08.589Z,0.10
2019-01-14T02:40:37.266Z,0.00
2019-01-14T02:43:15.094Z,0.00
2019-01-14T02:45:43.762Z,0.90
2019-01-14T02:48:12.541Z,0.00
2019-01-14T02:50:41.393Z,0.00
2019-01-14T02:55:53.735Z,0.00
2019-01-14T02:58:22.611Z,0.00
2019-01-14T03:00:51.257Z,0.00
2019-01-14T03:03:29.235Z,0.03
2019-01-14T03:05:57.891Z,0.10
2019-01-14T03:08:26.597Z,0.00
2019-01-14T03:10:55.436Z,0.00
2019-01-14T03:13:33.029Z,0.00
2019-01-14T03:16:01.966Z,0.10
2019-01-14T03:18:32.680Z,0.30
2019-01-14T03:21:01.420Z,0.00
2019-01-14T03:23:51.740Z,1.90
2019-01-14T03:26:20.510Z,0.17
2019-01-14T03:28:49.214Z,0.00
2019-01-14T03:31:18.222Z,0.00
2019-01-14T03:33:56.203Z,0.17
2019-01-14T03:36:24.972Z,0.03
2019-01-14T03:38:53.611Z,0.00
2019-01-14T03:41:22.403Z,0.03
2019-01-14T03:43:59.874Z,0.00
2019-01-14T03:46:28.602Z,0.00
2019-01-14T03:48:57.338Z,0.30
2019-01-14T03:51:26.298Z,0.00
2019-01-14T03:54:03.940Z,0.00
2019-01-14T03:56:34.581Z,0.00
2019-01-14T03:59:03.448Z,0.63
2019-01-14T04:01:32.251Z,0.10
2019-01-14T04:04:10.323Z,0.00
2019-01-14T04:06:39.106Z,0.00
2019-01-14T04:09:08.348Z,0.30
2019-01-14T04:11:37.101Z,0.00
2019-01-14T04:14:15.101Z,0.67
2019-01-14T04:16:43.825Z,0.00
2019-01-14T04:19:12.521Z,0.00
2019-01-14T04:21:41.433Z,0.00
2019-01-14T04:24:31.684Z,0.00
2019-01-14T04:27:00.445Z,0.00
2019-01-14T04:29:29.152Z,0.07
2019-01-14T04:31:57.877Z,0.00
2019-01-14T04:34:35.423Z,0.00
2019-01-14T04:37:04.242Z,0.10
2019-01-14T04:39:33.427Z,0.00
2019-01-14T04:42:02.234Z,0.00
2019-01-14T04:44:40.082Z,0.00
2019-01-14T04:47:08.971Z,0.83
2019-01-14T04:49:37.629Z,0.10
2019-01-14T04:52:06.676Z,0.00
2019-01-14T04:54:44.604Z,0.00
2019-01-14T04:57:13.371Z,0.10
2019-01-14T04:59:42.380Z,1.53
2019-01-14T05:02:11.357Z,0.00
2019-01-14T05:04:49.254Z,0.53
2019-01-14T05:07:18.083Z,0.00
2019-01-14T05:09:46.998Z,0.00
2019-01-14T05:12:15.716Z,0.00
2019-01-14T05:14:54.657Z,0.00
2019-01-14T05:17:23.361Z,0.00
2019-01-14T05:19:52.324Z,0.00
2019-01-14T05:22:21.033Z,0.00
2019-01-14T05:25:02.127Z,0.20
2019-01-14T05:27:30.922Z,0.00
2019-01-14T05:29:59.785Z,0.00
2019-01-14T05:32:28.877Z,0.00
2019-01-14T05:34:57.580Z,0.00
2019-01-14T05:37:26.512Z,0.00
2019-01-14T05:40:00.288Z,0.00
2019-01-14T05:42:29.586Z,2.63
2019-01-14T05:45:08.066Z,0.00
2019-01-14T05:47:37.325Z,0.10
2019-01-14T05:50:06.167Z,0.00
2019-01-14T05:52:34.895Z,0.00
2019-01-14T05:55:12.541Z,0.00
2019-01-14T05:57:41.526Z,0.00
2019-01-14T06:01:01.978Z,0.17
2019-01-14T06:03:43.619Z,0.13
2019-01-14T06:06:12.333Z,0.10
2019-01-14T06:08:41.076Z,0.00
2019-01-14T06:11:09.780Z,0.40
2019-01-14T06:13:47.628Z,0.10
2019-01-14T06:16:18.349Z,0.47
2019-01-14T06:18:47.377Z,0.00
2019-01-14T06:21:16.256Z,0.00
2019-01-14T06:23:54.299Z,1.47
2019-01-14T06:26:23.040Z,0.00
2019-01-14T06:28:51.833Z,0.47
2019-01-14T06:31:20.568Z,0.53
2019-01-14T06:33:58.991Z,0.17
2019-01-14T06:36:28.180Z,0.03
2019-01-14T06:38:57.130Z,0.00
2019-01-14T06:41:26.051Z,0.00
2019-01-14T06:44:03.900Z,0.40
2019-01-14T06:49:07.800Z,0.00
2019-01-14T06:51:36.568Z,0.40
2019-01-14T06:54:14.310Z,0.00
2019-01-14T06:56:43.374Z,0.00
2019-01-14T06:59:12.116Z,0.00
2019-01-14T07:01:40.984Z,0.00
2019-01-14T07:04:21.893Z,0.00
2019-01-14T07:06:50.574Z,0.10
2019-01-14T07:09:19.840Z,0.00
2019-01-14T07:11:48.944Z,0.00
2019-01-14T07:14:29.099Z,0.00
2019-01-14T07:16:57.856Z,0.00
2019-01-14T07:19:29.965Z,0.30
2019-01-14T07:21:58.732Z,0.10
2019-01-14T07:24:36.515Z,0.00
2019-01-14T07:27:05.396Z,0.33
2019-01-14T07:29:34.429Z,0.00
2019-01-14T07:32:03.365Z,0.00
2019-01-14T07:34:42.206Z,0.00
2019-01-14T07:37:13.389Z,0.00
2019-01-14T07:39:42.400Z,0.00
2019-01-14T07:42:11.935Z,0.00
2019-01-14T07:44:49.742Z,0.00
2019-01-14T07:47:19.004Z,0.57
2019-01-14T07:49:48.109Z,0.00
2019-01-14T07:52:16.958Z,0.00
2019-01-14T07:54:54.849Z,0.10
2019-01-14T07:57:23.794Z,0.00
2019-01-14T07:59:52.527Z,0.07
2019-01-14T08:02:21.304Z,0.00
2019-01-14T08:04:58.869Z,0.00
2019-01-14T08:07:28.041Z,0.00
2019-01-14T08:09:56.797Z,0.00
2019-01-14T08:12:25.781Z,0.00
2019-01-14T08:15:04.546Z,0.00
2019-01-14T08:17:33.545Z,1.80
2019-01-14T08:20:02.408Z,0.10
2019-01-14T08:22:31.408Z,0.00
2019-01-14T08:25:10.667Z,0.00
2019-01-14T08:27:41.270Z,1.60
2019-01-14T08:30:16.425Z,3.80
2019-01-14T08:32:45.135Z,9.83
2019-01-14T08:35:23.091Z,3.30
2019-01-14T08:37:51.814Z,3.83
2019-01-14T08:40:20.596Z,4.53
2019-01-14T08:42:49.310Z,6.47
2019-01-14T08:45:27.122Z,4.83
2019-01-14T08:47:56.093Z,4.93
2019-01-14T08:50:24.964Z,6.20
2019-01-14T08:52:56.936Z,4.80
2019-01-14T08:55:34.600Z,3.30
2019-01-14T08:58:03.440Z,6.03
2019-01-14T09:00:34.124Z,4.83
2019-01-14T09:03:02.997Z,6.73
2019-01-14T09:05:40.552Z,4.63
2019-01-14T09:08:09.300Z,6.53
2019-01-14T09:10:38.195Z,6.50
2019-01-14T09:13:06.916Z,6.90
2019-01-14T09:15:44.833Z,5.93
2019-01-14T09:18:13.545Z,9.33
2019-01-14T09:20:42.260Z,4.77
2019-01-14T09:23:11.388Z,3.33
2019-01-14T09:25:57.141Z,4.33
2019-01-14T09:28:25.920Z,3.57
2019-01-14T09:30:54.890Z,4.90
2019-01-14T09:33:23.870Z,5.10
2019-01-14T09:36:02.372Z,4.83
2019-01-14T09:38:35.709Z,4.93
2019-01-14T09:41:01.922Z,2.83
2019-01-14T09:43:31.098Z,6.27
2019-01-14T09:46:10.249Z,2.83
2019-01-14T09:48:39.018Z,3.70
2019-01-14T09:51:07.902Z,2.47
2019-01-14T09:53:36.776Z,4.53
2019-01-14T09:56:14.406Z,5.07
2019-01-14T09:58:43.216Z,6.63
2019-01-14T10:01:12.106Z,6.73
2019-01-14T10:03:41.074Z,3.40
2019-01-14T10:06:19.293Z,2.70
2019-01-14T10:08:48.181Z,3.50
2019-01-14T10:11:17.084Z,4.30
2019-01-14T10:13:46.315Z,2.67
2019-01-14T10:16:25.230Z,5.13
2019-01-14T10:18:56.481Z,8.23
2019-01-14T10:21:25.461Z,5.30
2019-01-14T10:23:54.212Z,3.77
2019-01-14T10:26:31.913Z,5.77
2019-01-14T10:29:00.773Z,4.03
2019-01-14T10:31:29.553Z,3.67
2019-01-14T10:33:58.393Z,10.27
2019-01-14T10:36:35.988Z,3.67
2019-01-14T10:39:06.532Z,5.50
2019-01-14T10:41:35.246Z,1.83
2019-01-14T10:44:03.948Z,3.27
2019-01-14T10:46:41.859Z,4.23
2019-01-14T10:49:13.433Z,5.57
2019-01-14T10:51:42.241Z,4.73
2019-01-14T10:54:11.335Z,2.93
2019-01-14T10:56:55.559Z,7.07
2019-01-14T10:59:24.296Z,3.93
2019-01-14T11:01:53.170Z,2.80
2019-01-14T11:04:22.051Z,2.87
2019-01-14T11:06:59.788Z,1.20
2019-01-14T11:09:29.303Z,4.03
2019-01-14T11:11:58.394Z,2.90
2019-01-14T11:14:27.297Z,1.60
2019-01-14T11:17:05.148Z,0.90
2019-01-14T11:19:35.904Z,1.43
2019-01-14T11:22:04.612Z,1.20
2019-01-14T11:24:54.050Z,1.77
2019-01-14T11:27:31.926Z,0.83
2019-01-14T11:30:00.756Z,1.97
2019-01-14T11:32:29.614Z,1.90
2019-01-14T11:35:10.808Z,0.77
2019-01-14T11:37:39.500Z,1.10
2019-01-14T11:40:13.713Z,2.60
2019-01-14T11:42:42.384Z,1.47
2019-01-14T11:45:20.201Z,1.70
2019-01-14T11:47:51.434Z,1.87
2019-01-14T11:50:20.192Z,1.17
2019-01-14T11:52:49.537Z,2.53
2019-01-14T11:55:27.808Z,3.63
2019-01-14T11:57:56.849Z,1.70
2019-01-14T12:00:26.354Z,3.00
2019-01-14T12:02:55.103Z,2.00
2019-01-14T12:05:32.835Z,2.30
2019-01-14T12:08:01.585Z,2.80
2019-01-14T12:10:30.302Z,4.80
2019-01-14T12:12:59.055Z,5.67
2019-01-14T12:15:37.066Z,5.37
2019-01-14T12:18:06.333Z,5.63
2019-01-14T12:20:35.049Z,3.57
2019-01-14T12:23:04.023Z,3.17
2019-01-14T12:25:42.085Z,3.53
2019-01-14T12:28:11.019Z,1.77
2019-01-14T12:30:41.729Z,5.27
2019-01-14T12:33:10.679Z,4.83
2019-01-14T12:35:48.520Z,3.03
2019-01-14T12:38:17.233Z,5.53
2019-01-14T12:40:46.205Z,3.43
2019-01-14T12:43:15.036Z,6.07
2019-01-14T12:45:52.807Z,3.37
2019-01-14T12:48:22.640Z,4.17
2019-01-14T12:50:52.404Z,4.20
2019-01-14T12:53:21.283Z,5.80
2019-01-14T12:55:59.155Z,7.20
2019-01-14T12:58:28.117Z,2.67
2019-01-14T13:00:56.838Z,4.97
2019-01-14T13:03:26.207Z,6.10
2019-01-14T13:08:38.557Z,4.00
2019-01-14T13:11:07.430Z,4.37
2019-01-14T13:13:36.145Z,6.60
2019-01-14T13:16:14.024Z,3.57
2019-01-14T13:18:42.940Z,3.37
2019-01-14T13:21:11.672Z,2.90
2019-01-14T13:23:40.472Z,3.13
2019-01-14T13:26:18.415Z,4.70
2019-01-14T13:28:47.186Z,7.33
2019-01-14T13:31:16.090Z,3.03
2019-01-14T13:33:44.849Z,5.03
2019-01-14T13:36:22.830Z,5.47
2019-01-14T13:38:51.744Z,4.53
2019-01-14T13:41:20.386Z,3.77
2019-01-14T13:43:49.669Z,1.93
2019-01-14T13:46:27.512Z,4.50
2019-01-14T13:48:56.706Z,7.37
2019-01-14T13:51:25.828Z,2.50
2019-01-14T13:53:55.067Z,6.50
2019-01-14T13:56:32.990Z,4.47
2019-01-14T13:59:01.992Z,4.97
2019-01-14T14:01:30.840Z,3.03
2019-01-14T14:03:59.669Z,6.60
2019-01-14T14:06:37.292Z,2.50
2019-01-14T14:09:07.942Z,3.93
2019-01-14T14:11:36.708Z,4.00
2019-01-14T14:14:05.461Z,1.93
2019-01-14T14:16:43.255Z,4.13
2019-01-14T14:19:12.706Z,2.07
2019-01-14T14:21:41.996Z,4.30
2019-01-14T14:24:10.922Z,1.77
2019-01-14T14:29:29.370Z,3.10
2019-01-14T14:31:58.631Z,3.47
2019-01-14T14:34:27.673Z,2.43
2019-01-14T14:37:05.894Z,2.67
2019-01-14T14:39:34.913Z,6.53
2019-01-14T14:42:12.960Z,2.90
2019-01-14T14:44:44.841Z,3.00
2019-01-14T14:47:13.667Z,3.40
2019-01-14T14:49:43.039Z,6.40
2019-01-14T14:52:12.151Z,1.27
2019-01-14T14:54:42.877Z,3.37
2019-01-14T14:57:12.485Z,5.23
2019-01-14T14:59:42.243Z,4.57
2019-01-14T15:04:46.120Z,5.80
2019-01-14T15:07:15.732Z,2.70
2019-01-14T15:09:44.714Z,6.40
2019-01-14T15:12:22.708Z,2.73
2019-01-14T15:14:51.582Z,4.10
2019-01-14T15:17:20.439Z,3.00
2019-01-14T15:19:49.245Z,3.83
2019-01-14T15:22:27.256Z,2.67
2019-01-14T15:24:56.037Z,2.33
2019-01-14T15:27:24.908Z,2.67
2019-01-14T15:29:53.722Z,2.17
2019-01-14T15:35:13.973Z,7.30
2019-01-14T15:37:42.829Z,2.77
2019-01-14T15:40:12.568Z,7.07
2019-01-14T15:42:50.407Z,5.50
2019-01-14T15:45:19.658Z,5.03
2019-01-14T15:47:48.700Z,6.67
2019-01-14T15:50:19.535Z,3.50
2019-01-14T15:52:58.028Z,4.10
2019-01-14T15:55:28.891Z,4.23
2019-01-14T15:57:57.845Z,4.10
2019-01-14T16:00:26.774Z,7.97
2019-01-14T16:03:04.911Z,3.17
2019-01-14T16:05:33.885Z,4.53
2019-01-14T16:08:03.266Z,5.50
2019-01-14T16:10:32.266Z,5.10
2019-01-14T16:13:09.925Z,5.07
2019-01-14T16:15:39.051Z,4.63
2019-01-14T16:18:07.865Z,5.20
2019-01-14T16:20:36.545Z,5.17
2019-01-14T16:23:14.601Z,3.20
2019-01-14T16:25:43.420Z,2.57
2019-01-14T16:28:12.831Z,4.90
2019-01-14T16:30:41.663Z,2.53
2019-01-14T16:33:20.100Z,3.37
2019-01-14T16:35:49.137Z,3.93
2019-01-14T16:38:18.137Z,4.57
2019-01-14T16:40:50.204Z,5.73
2019-01-14T16:43:27.896Z,3.70
2019-01-14T16:45:56.976Z,4.57
2019-01-14T16:48:26.153Z,2.23
2019-01-14T16:51:10.030Z,4.40
2019-01-14T16:53:39.279Z,3.90
2019-01-14T16:56:08.106Z,1.20
2019-01-14T16:58:36.904Z,4.90
2019-01-14T17:03:52.723Z,2.90
2019-01-14T17:06:21.712Z,1.63
2019-01-14T17:08:50.550Z,4.03
2019-01-14T17:11:29.927Z,3.03
2019-01-14T17:13:58.857Z,2.57
2019-01-14T17:16:27.656Z,1.67
2019-01-14T17:18:59.052Z,2.00
2019-01-14T17:21:37.120Z,3.33
2019-01-14T17:24:05.981Z,1.53
2019-01-14T17:26:34.787Z,5.07
2019-01-14T17:29:04.123Z,3.27
2019-01-14T17:34:17.822Z,3.07
2019-01-14T17:36:48.290Z,3.33
2019-01-14T17:39:17.080Z,1.17
2019-01-14T17:41:55.526Z,6.60
2019-01-14T17:44:26.339Z,7.43
2019-01-14T17:46:55.647Z,3.37
2019-01-14T17:49:24.723Z,3.67
2019-01-14T17:52:02.672Z,5.00
2019-01-14T17:54:31.529Z,5.93
2019-01-14T17:57:00.561Z,2.17
2019-01-14T17:59:29.490Z,3.67
2019-01-14T18:02:07.416Z,2.43
2019-01-14T18:04:36.298Z,1.50
2019-01-14T18:07:05.021Z,1.30
2019-01-14T18:09:34.387Z,2.83
2019-01-14T18:12:12.296Z,2.10
2019-01-14T18:14:41.192Z,1.40
2019-01-14T18:17:09.978Z,4.00
2019-01-14T18:19:38.660Z,3.37
2019-01-14T18:22:16.458Z,4.70
2019-01-14T18:24:45.396Z,3.73
2019-01-14T18:27:14.239Z,3.33
2019-01-14T18:29:42.934Z,4.30
2019-01-14T18:32:20.577Z,1.87
2019-01-14T18:37:25.063Z,3.77
2019-01-14T18:39:54.092Z,2.60
2019-01-14T18:42:32.097Z,4.33
2019-01-14T18:45:00.862Z,3.00
2019-01-14T18:47:29.740Z,2.67
2019-01-14T18:49:58.722Z,3.47
2019-01-14T18:52:36.592Z,5.67
2019-01-14T18:55:05.729Z,3.37
2019-01-14T18:57:34.822Z,5.27
2019-01-14T19:00:05.218Z,4.73
2019-01-14T19:02:42.847Z,8.20
2019-01-14T19:05:11.833Z,3.90
2019-01-14T19:07:40.981Z,5.17
2019-01-14T19:10:10.535Z,3.67
2019-01-14T19:12:51.234Z,6.00
2019-01-14T19:15:20.878Z,3.60
2019-01-14T19:17:50.480Z,3.50
2019-01-14T19:20:27.245Z,3.50
2019-01-14T19:23:05.254Z,5.10
2019-01-14T19:25:34.337Z,4.37
2019-01-14T19:28:03.301Z,5.83
2019-01-14T19:30:32.221Z,4.87
2019-01-14T19:35:45.939Z,4.03
2019-01-14T19:38:15.186Z,6.77
2019-01-14T19:40:43.991Z,4.53
2019-01-14T19:43:17.231Z,4.07
2019-01-14T19:45:49.937Z,8.30
2019-01-14T19:48:17.253Z,4.90
2019-01-14T19:50:46.784Z,6.23
2019-01-14T19:53:24.949Z,4.50
2019-01-14T19:55:54.612Z,5.90
2019-01-14T19:58:23.406Z,5.73
2019-01-14T20:00:52.666Z,7.50
2019-01-14T20:03:31.360Z,9.57
2019-01-14T20:06:00.630Z,6.33
2019-01-14T20:08:29.695Z,7.47
2019-01-14T20:10:58.521Z,3.57
2019-01-14T20:13:36.263Z,5.87
2019-01-14T20:16:05.795Z,9.03
2019-01-14T20:18:34.790Z,3.73
2019-01-14T20:21:06.727Z,9.53
2019-01-14T20:23:44.661Z,4.67
2019-01-14T20:26:13.431Z,6.37
2019-01-14T20:28:42.668Z,4.00
2019-01-14T20:31:12.092Z,4.20
2019-01-14T20:33:49.967Z,4.03
2019-01-14T20:36:19.670Z,6.77
2019-01-14T20:38:48.430Z,8.07
2019-01-14T20:41:18.661Z,3.87
2019-01-14T20:43:56.542Z,7.37
2019-01-14T20:46:26.931Z,8.63
2019-01-14T20:48:55.645Z,6.93
2019-01-14T20:51:24.518Z,5.20
2019-01-14T20:54:02.603Z,3.70
2019-01-14T20:56:31.406Z,6.07
2019-01-14T20:59:00.086Z,7.40
2019-01-14T21:01:28.779Z,4.67
2019-01-14T21:04:06.455Z,10.63
2019-01-14T21:06:35.285Z,5.20
2019-01-14T21:09:05.995Z,6.40
2019-01-14T21:11:34.967Z,4.47
2019-01-14T21:14:12.884Z,5.60
2019-01-14T21:16:41.856Z,8.37
2019-01-14T21:19:13.134Z,7.53
2019-01-14T21:21:57.443Z,9.40
2019-01-14T21:24:28.427Z,12.83
2019-01-14T21:26:57.452Z,9.60
2019-01-14T21:29:26.894Z,5.67
2019-01-14T21:32:04.970Z,5.43
2019-01-14T21:34:34.225Z,7.13
2019-01-14T21:37:03.121Z,8.13
2019-01-14T21:39:31.883Z,7.30
2019-01-14T21:42:10.195Z,5.37
2019-01-14T21:44:38.908Z,7.80
2019-01-14T21:47:08.053Z,5.97
2019-01-14T21:49:36.853Z,9.00
2019-01-14T21:52:15.325Z,7.23
2019-01-14T21:54:44.752Z,7.17
2019-01-14T21:57:13.829Z,8.30
2019-01-14T21:59:43.415Z,8.93
2019-01-14T22:02:21.777Z,5.47
2019-01-14T22:04:50.485Z,6.40
2019-01-14T22:07:19.877Z,5.53
2019-01-14T22:09:48.998Z,4.40
2019-01-14T22:12:27.242Z,8.10
2019-01-14T22:14:56.681Z,7.07
2019-01-14T22:17:25.941Z,8.43
2019-01-14T22:19:54.943Z,6.80
2019-01-14T22:22:32.986Z,6.80
2019-01-14T22:25:02.047Z,9.47
2019-01-14T22:27:30.793Z,6.50
2019-01-14T22:29:59.531Z,7.63
2019-01-14T22:32:38.020Z,8.67
2019-01-14T22:35:07.033Z,3.13
2019-01-14T22:37:36.003Z,3.70
2019-01-14T22:40:06.423Z,3.53
2019-01-14T22:42:35.342Z,8.57
2019-01-14T22:45:05.220Z,7.63
2019-01-14T22:47:37.270Z,7.13
2019-01-14T22:50:09.698Z,5.13
2019-01-14T22:52:47.704Z,7.83
2019-01-14T22:55:16.537Z,6.13
2019-01-14T22:57:45.745Z,4.13
2019-01-14T23:00:47.637Z,6.43
2019-01-14T23:03:26.385Z,6.50
2019-01-14T23:05:55.305Z,8.13
2019-01-14T23:08:24.379Z,4.13
2019-01-14T23:10:56.174Z,9.93
2019-01-14T23:13:37.711Z,9.37
2019-01-14T23:16:06.369Z,3.53
2019-01-14T23:18:35.161Z,6.17
2019-01-14T23:21:04.217Z,7.43
2019-01-14T23:23:42.623Z,7.13
2019-01-14T23:26:14.457Z,4.43
2019-01-14T23:28:43.659Z,9.63
2019-01-14T23:31:14.529Z,6.10
2019-01-14T23:33:52.555Z,6.73
2019-01-14T23:36:21.368Z,6.50
2019-01-14T23:38:50.428Z,7.60
2019-01-14T23:41:21.478Z,8.17
2019-01-14T23:43:50.583Z,7.60
2019-01-14T23:46:19.644Z,15.53
2019-01-14T23:48:50.665Z,7.80
2019-01-14T23:51:19.794Z,9.77
2019-01-14T23:54:00.863Z,5.87
2019-01-14T23:56:29.500Z,7.77
2019-01-14T23:58:58.272Z,7.83
